Time;durP1;ratioP1;P1;durP2;ratioP2;P2;SDS_P1;SDS_P2;PMS_P1;PMS_P2;Temp;Humidity;BMP_temperature;BMP_pressure;BME280_temperature;BME280_humidity;BME280_pressure;Samples;Min_cycle;Max_cycle;Signal;HPM_P1;HPM_P2
2022/10/14 00:01:30;;;;;;;36.72;24.05;;;12.10;99.90;;;;;;5033771;28;20202;-67
2022/10/14 00:03:55;;;;;;;49.03;26.55;;;12.20;99.90;;;;;;5033283;28;20175;-67
2022/10/14 00:06:27;;;;;;;45.97;28.00;;;12.20;99.90;;;;;;5033183;28;20175;-67
2022/10/14 00:08:53;;;;;;;42.40;25.52;;;12.20;99.90;;;;;;5033239;28;20647;-67
2022/10/14 00:11:25;;;;;;;46.22;25.75;;;12.20;99.90;;;;;;5033190;28;20590;-67
2022/10/14 00:13:55;;;;;;;39.30;25.63;;;12.20;99.90;;;;;;5033193;28;20289;-67
2022/10/14 00:16:24;;;;;;;47.03;26.90;;;12.20;99.90;;;;;;5033404;28;20171;-67
2022/10/14 00:18:49;;;;;;;48.97;28.00;;;12.20;99.90;;;;;;5032988;28;20178;-67
2022/10/14 00:21:16;;;;;;;47.03;28.98;;;12.20;99.90;;;;;;5033077;28;20237;-67
2022/10/14 00:23:42;;;;;;;56.35;29.98;;;12.10;99.90;;;;;;5035906;28;20684;-67
2022/10/14 00:26:20;;;;;;;52.58;28.42;;;12.10;99.90;;;;;;5035672;28;20190;-67
2022/10/14 00:28:46;;;;;;;59.43;30.53;;;12.10;99.90;;;;;;5035576;28;20310;-67
2022/10/14 00:31:12;;;;;;;47.22;28.33;;;12.10;99.90;;;;;;5035669;28;20269;-67
2022/10/14 00:33:37;;;;;;;65.57;33.60;;;12.10;99.90;;;;;;5036583;28;20281;-67
2022/10/14 00:36:05;;;;;;;57.42;31.90;;;12.10;99.90;;;;;;5035561;28;20171;-67
2022/10/14 00:38:31;;;;;;;60.60;31.33;;;12.10;99.90;;;;;;5036970;28;20159;-67
2022/10/14 00:40:57;;;;;;;59.42;33.05;;;12.10;99.90;;;;;;5036588;28;20182;-67
2022/10/14 00:43:25;;;;;;;66.70;33.92;;;12.10;99.90;;;;;;5036598;28;20194;-67
2022/10/14 00:45:51;;;;;;;53.53;30.40;;;12.10;99.90;;;;;;5036428;28;20183;-67
2022/10/14 00:48:19;;;;;;;63.72;34.63;;;12.10;99.90;;;;;;5036305;28;20233;-67
2022/10/14 00:50:48;;;;;;;60.10;32.85;;;12.10;99.90;;;;;;5036457;28;20185;-67
2022/10/14 00:53:14;;;;;;;61.10;33.28;;;12.10;99.90;;;;;;5036310;28;20207;-67
2022/10/14 00:55:41;;;;;;;62.72;32.38;;;12.10;99.90;;;;;;5035302;28;20167;-67
2022/10/14 00:58:08;;;;;;;67.50;33.93;;;12.10;99.90;;;;;;5036766;28;20180;-66
2022/10/14 01:00:35;;;;;;;61.28;32.15;;;12.10;99.90;;;;;;5035146;28;20546;-67
2022/10/14 01:03:08;;;;;;;58.85;32.22;;;12.10;99.90;;;;;;5036708;28;20206;-67
2022/10/14 01:05:43;;;;;;;64.80;33.28;;;12.10;99.90;;;;;;5036698;28;20166;-67
2022/10/14 01:08:25;;;;;;;54.97;30.58;;;12.10;99.90;;;;;;5036834;28;20253;-67
2022/10/14 01:11:08;;;;;;;57.95;30.85;;;12.10;99.90;;;;;;5036356;28;20170;-67
2022/10/14 01:13:38;;;;;;;57.33;29.53;;;12.10;99.90;;;;;;5036052;28;20202;-66
2022/10/14 01:16:22;;;;;;;43.63;25.83;;;12.20;99.90;;;;;;5036342;28;20264;-68
2022/10/14 01:19:07;;;;;;;51.30;27.92;;;12.20;99.90;;;;;;5035000;28;20190;-67
2022/10/14 01:21:47;;;;;;;59.67;31.67;;;12.30;99.90;;;;;;5035917;28;20229;-67
2022/10/14 01:24:37;;;;;;;64.32;32.00;;;12.20;99.90;;;;;;5036199;28;20247;-67
2022/10/14 01:27:17;;;;;;;44.92;26.33;;;12.20;99.90;;;;;;5035602;28;20160;-68
2022/10/14 01:29:51;;;;;;;43.83;26.70;;;12.20;99.90;;;;;;5036137;28;20250;-67
2022/10/14 01:32:30;;;;;;;45.13;26.27;;;12.20;99.90;;;;;;5035720;28;20198;-67
2022/10/14 01:35:27;;;;;;;48.58;28.20;;;12.30;99.90;;;;;;5035281;28;20261;-67
2022/10/14 01:37:58;;;;;;;56.85;28.30;;;12.30;99.90;;;;;;5035817;28;20190;-67
2022/10/14 01:40:48;;;;;;;52.22;28.45;;;12.30;99.90;;;;;;5034347;28;20197;-63
2022/10/14 01:43:17;;;;;;;45.95;24.92;;;12.30;99.90;;;;;;5035516;28;20221;-67
2022/10/14 01:45:46;;;;;;;51.53;26.60;;;12.30;99.90;;;;;;5035418;28;20171;-67
2022/10/14 01:48:16;;;;;;;44.75;26.65;;;12.30;99.90;;;;;;5035370;28;20207;-67
2022/10/14 01:50:44;;;;;;;39.08;23.88;;;12.30;99.90;;;;;;5035353;28;20174;-67
2022/10/14 01:53:16;;;;;;;42.97;23.15;;;12.30;99.90;;;;;;5035789;28;20252;-67
2022/10/14 01:55:44;;;;;;;37.72;23.00;;;12.30;99.90;;;;;;5035575;28;20167;-67
2022/10/14 01:58:13;;;;;;;44.95;23.95;;;12.30;99.90;;;;;;5034035;28;20164;-67
2022/10/14 02:00:38;;;;;;;42.60;24.17;;;12.20;99.90;;;;;;5035195;28;20171;-67
2022/10/14 02:03:04;;;;;;;45.25;23.70;;;12.20;99.90;;;;;;5035106;28;20198;-67
2022/10/14 02:05:36;;;;;;;38.83;23.08;;;12.20;99.90;;;;;;5035162;28;20675;-67
2022/10/14 02:08:43;;;;;;;45.15;25.02;;;12.20;99.90;;;;;;5035359;28;20163;-67
2022/10/14 02:11:19;;;;;;;47.03;23.67;;;12.20;99.90;;;;;;5035358;28;20166;-67
2022/10/14 02:14:14;;;;;;;43.75;24.67;;;12.20;99.90;;;;;;5034778;28;20206;-67
2022/10/14 02:17:12;;;;;;;36.20;20.38;;;12.20;99.90;;;;;;5034995;28;20155;-67
2022/10/14 02:20:07;;;;;;;42.00;24.55;;;12.20;99.90;;;;;;5027927;28;20191;-67
2022/10/14 02:22:38;;;;;;;38.70;22.60;;;12.20;99.90;;;;;;5034300;28;20598;-67
2022/10/14 02:25:15;;;;;;;46.00;25.15;;;12.20;99.90;;;;;;5033428;28;20168;-67
2022/10/14 02:27:44;;;;;;;37.30;22.85;;;12.20;99.90;;;;;;5034473;28;20194;-67
2022/10/14 02:30:11;;;;;;;47.75;25.60;;;12.20;99.90;;;;;;5034604;28;20249;-67
2022/10/14 02:32:38;;;;;;;36.22;22.27;;;12.20;99.90;;;;;;5034808;28;20663;-67
2022/10/14 02:35:06;;;;;;;40.75;21.98;;;12.20;99.90;;;;;;5034609;28;20615;-67
2022/10/14 02:37:33;;;;;;;39.22;22.35;;;12.20;99.90;;;;;;5034421;28;20636;-67
2022/10/14 02:40:10;;;;;;;32.30;19.08;;;12.20;99.90;;;;;;5034322;28;20674;-67
2022/10/14 02:42:36;;;;;;;36.22;21.92;;;12.20;99.90;;;;;;5034339;28;20187;-67
2022/10/14 02:45:02;;;;;;;43.10;23.30;;;12.30;99.90;;;;;;5034512;28;20646;-67
2022/10/14 02:47:28;;;;;;;39.45;22.70;;;12.20;99.90;;;;;;5033387;28;20179;-67
2022/10/14 02:49:54;;;;;;;37.28;22.02;;;12.10;99.90;;;;;;5034606;28;20198;-67
2022/10/14 02:52:20;;;;;;;29.60;19.27;;;12.10;99.90;;;;;;5034295;28;20670;-67
2022/10/14 02:54:45;;;;;;;35.42;21.75;;;12.10;99.90;;;;;;5034277;28;20203;-67
2022/10/14 02:57:11;;;;;;;35.88;20.90;;;12.10;99.90;;;;;;5034023;28;20547;-67
2022/10/14 02:59:38;;;;;;;33.97;20.25;;;12.10;99.90;;;;;;5032804;28;20591;-67
2022/10/14 03:02:06;;;;;;;27.65;18.00;;;12.20;99.90;;;;;;5032792;28;20218;-67
2022/10/14 03:04:32;;;;;;;28.00;18.20;;;12.20;99.90;;;;;;5033954;28;20171;-67
2022/10/14 03:06:58;;;;;;;33.60;19.00;;;12.20;99.90;;;;;;5032806;28;20182;-67
2022/10/14 03:09:23;;;;;;;27.73;17.92;;;12.20;99.90;;;;;;5032708;28;20266;-67
2022/10/14 03:11:49;;;;;;;26.00;16.45;;;12.20;99.90;;;;;;5033801;28;20199;-67
2022/10/14 03:14:15;;;;;;;28.85;18.02;;;12.20;99.90;;;;;;5033864;28;20691;-67
2022/10/14 03:16:40;;;;;;;27.30;17.10;;;12.20;99.90;;;;;;5034342;28;20226;-67
2022/10/14 03:19:06;;;;;;;28.10;17.67;;;12.20;99.90;;;;;;5033789;28;20184;-67
2022/10/14 03:21:32;;;;;;;26.33;16.27;;;12.20;99.90;;;;;;5034264;28;20199;-67
2022/10/14 03:23:58;;;;;;;26.52;16.63;;;12.20;99.90;;;;;;5033733;28;20254;-67
2022/10/14 03:26:25;;;;;;;27.15;17.50;;;12.20;99.90;;;;;;5033994;28;20644;-67
2022/10/14 03:28:51;;;;;;;30.58;18.58;;;12.20;99.90;;;;;;5033704;28;20683;-67
2022/10/14 03:31:17;;;;;;;26.77;16.88;;;12.20;99.90;;;;;;5032338;28;20209;-67
2022/10/14 03:33:42;;;;;;;26.38;16.83;;;12.20;99.90;;;;;;5033762;28;20203;-67
2022/10/14 03:36:08;;;;;;;32.20;19.80;;;12.20;99.90;;;;;;5033603;28;20221;-67
2022/10/14 03:38:34;;;;;;;26.73;16.73;;;12.20;99.90;;;;;;5033970;28;20174;-66
2022/10/14 03:40:59;;;;;;;28.55;17.58;;;12.20;99.90;;;;;;5032115;28;20186;-67
2022/10/14 03:43:27;;;;;;;31.35;18.08;;;12.10;99.90;;;;;;5033348;28;20219;-67
2022/10/14 03:45:53;;;;;;;30.15;17.23;;;12.10;99.90;;;;;;5033346;28;20199;-67
2022/10/14 03:48:18;;;;;;;31.05;18.13;;;12.10;99.90;;;;;;5032020;28;20219;-67
2022/10/14 03:50:46;;;;;;;30.83;19.15;;;12.10;99.90;;;;;;5033330;28;20182;-67
2022/10/14 03:53:12;;;;;;;31.80;18.85;;;12.20;99.90;;;;;;5031924;28;20250;-67
2022/10/14 03:55:37;;;;;;;30.10;18.85;;;12.20;99.90;;;;;;5033368;28;20256;-67
2022/10/14 03:58:04;;;;;;;26.48;16.50;;;12.10;99.90;;;;;;5037099;28;20171;-67
2022/10/14 04:00:30;;;;;;;30.67;17.92;;;12.10;99.90;;;;;;5040083;28;20181;-67
2022/10/14 04:02:56;;;;;;;26.55;17.10;;;12.10;99.90;;;;;;5038528;28;20203;-67
2022/10/14 04:05:22;;;;;;;30.52;17.73;;;12.10;99.90;;;;;;5040041;28;20171;-67
2022/10/14 04:07:47;;;;;;;25.15;16.50;;;12.10;99.90;;;;;;5040381;28;20264;-67
2022/10/14 04:10:13;;;;;;;30.13;16.83;;;12.10;99.90;;;;;;5039699;28;20178;-67
2022/10/14 04:12:39;;;;;;;26.45;16.85;;;12.10;99.90;;;;;;5039571;28;20195;-67
2022/10/14 04:15:07;;;;;;;33.25;19.63;;;12.10;99.90;;;;;;5039702;28;20182;-69
2022/10/14 04:17:32;;;;;;;31.20;18.52;;;12.10;99.90;;;;;;5039701;28;20175;-67
2022/10/14 04:19:58;;;;;;;31.48;19.27;;;12.10;99.90;;;;;;5039982;28;20155;-67
2022/10/14 04:22:24;;;;;;;27.45;16.02;;;12.10;99.90;;;;;;5039649;28;20596;-67
2022/10/14 04:24:50;;;;;;;31.10;19.27;;;12.10;99.90;;;;;;5039707;28;20186;-67
2022/10/14 04:27:17;;;;;;;27.15;16.80;;;12.10;99.90;;;;;;5037937;28;20183;-67
2022/10/14 04:29:43;;;;;;;26.77;16.27;;;12.10;99.90;;;;;;5040216;28;20167;-67
2022/10/14 04:32:09;;;;;;;27.15;17.13;;;12.10;99.90;;;;;;5039508;28;20573;-67
2022/10/14 04:34:34;;;;;;;25.50;16.90;;;12.10;99.90;;;;;;5039854;28;20569;-67
2022/10/14 04:37:00;;;;;;;24.77;16.05;;;12.20;99.90;;;;;;5039644;28;20250;-67
2022/10/14 04:39:26;;;;;;;25.48;17.05;;;12.20;99.90;;;;;;5039860;28;20168;-67
2022/10/14 04:41:52;;;;;;;25.55;16.38;;;12.20;99.90;;;;;;5039301;28;20199;-67
2022/10/14 04:44:17;;;;;;;25.77;15.73;;;12.20;99.90;;;;;;5039326;28;20187;-67
2022/10/14 04:46:43;;;;;;;21.83;14.50;;;12.20;99.90;;;;;;5039348;28;20551;-67
2022/10/14 04:49:09;;;;;;;25.00;16.50;;;12.20;99.90;;;;;;5039223;28;20214;-67
2022/10/14 04:51:35;;;;;;;26.27;15.98;;;12.20;99.90;;;;;;5039533;28;20205;-67
2022/10/14 04:54:01;;;;;;;26.38;15.88;;;12.20;99.90;;;;;;5039564;28;20199;-67
2022/10/14 04:56:26;;;;;;;25.02;15.88;;;12.20;99.90;;;;;;5037812;28;20186;-67
2022/10/14 04:58:52;;;;;;;20.42;14.25;;;12.20;99.90;;;;;;5038039;28;20175;-66
2022/10/14 05:01:18;;;;;;;22.65;14.35;;;12.20;99.90;;;;;;5039213;28;20199;-67
2022/10/14 05:03:44;;;;;;;21.67;15.10;;;12.20;99.90;;;;;;5039354;28;20733;-67
2022/10/14 05:06:09;;;;;;;25.15;16.45;;;12.20;99.90;;;;;;5039379;28;20270;-66
2022/10/14 05:08:36;;;;;;;27.08;16.30;;;12.20;99.90;;;;;;5038062;28;20254;-66
2022/10/14 05:11:02;;;;;;;21.90;13.82;;;12.20;99.90;;;;;;5035800;28;20172;-66
2022/10/14 05:13:29;;;;;;;24.33;15.77;;;12.20;99.90;;;;;;5035860;28;20207;-67
2022/10/14 05:15:55;;;;;;;25.52;15.43;;;12.20;99.90;;;;;;5034972;28;20517;-67
2022/10/14 05:18:21;;;;;;;25.75;16.60;;;12.20;99.90;;;;;;5036056;28;20183;-67
2022/10/14 05:20:47;;;;;;;26.02;16.48;;;12.10;99.90;;;;;;5034899;28;20183;-67
2022/10/14 05:23:13;;;;;;;22.52;13.85;;;12.10;99.90;;;;;;5035849;28;20283;-67
2022/10/14 05:25:38;;;;;;;26.15;15.85;;;12.10;99.90;;;;;;5035896;28;20175;-67
2022/10/14 05:28:04;;;;;;;28.88;16.58;;;12.20;99.90;;;;;;5035647;28;20199;-67
2022/10/14 05:30:30;;;;;;;25.85;16.08;;;12.10;99.90;;;;;;5035857;28;20179;-67
2022/10/14 05:32:56;;;;;;;25.55;16.75;;;12.20;99.90;;;;;;5034487;28;20272;-67
2022/10/14 05:35:21;;;;;;;27.38;17.55;;;12.10;99.90;;;;;;5035998;28;20168;-67
2022/10/14 05:37:47;;;;;;;26.65;16.60;;;12.10;99.90;;;;;;5035589;28;20533;-66
2022/10/14 05:40:13;;;;;;;26.13;16.23;;;12.10;99.90;;;;;;5034296;28;20171;-67
2022/10/14 05:42:39;;;;;;;27.52;18.02;;;12.10;99.90;;;;;;5035444;28;20199;-67
2022/10/14 05:45:05;;;;;;;28.88;16.25;;;12.10;99.90;;;;;;5035517;28;20163;-67
2022/10/14 05:47:31;;;;;;;29.25;18.00;;;12.10;99.90;;;;;;5035699;28;20175;-67
2022/10/14 05:49:58;;;;;;;26.48;17.58;;;12.10;99.90;;;;;;5035374;28;20206;-67
2022/10/14 05:52:24;;;;;;;23.15;15.98;;;12.10;99.90;;;;;;5033997;28;20196;-67
2022/10/14 05:54:49;;;;;;;24.17;16.50;;;12.10;99.90;;;;;;5034069;28;20214;-67
2022/10/14 05:57:15;;;;;;;23.10;14.85;;;12.10;99.90;;;;;;5035090;28;20172;-68
2022/10/14 05:59:41;;;;;;;31.30;17.98;;;12.10;99.90;;;;;;5035351;28;20556;-68
2022/10/14 06:02:08;;;;;;;29.48;18.23;;;12.10;99.90;;;;;;5035114;28;20317;-68
2022/10/14 06:04:34;;;;;;;29.65;17.58;;;12.10;99.90;;;;;;5035515;28;20175;-68
2022/10/14 06:07:00;;;;;;;26.60;17.23;;;12.10;99.90;;;;;;5035507;28;20543;-68
2022/10/14 06:09:25;;;;;;;27.70;17.10;;;12.10;99.90;;;;;;5035132;28;20671;-67
2022/10/14 06:11:51;;;;;;;28.58;17.27;;;12.10;99.90;;;;;;5033681;28;20295;-67
2022/10/14 06:14:17;;;;;;;32.47;19.40;;;12.10;99.90;;;;;;5034900;28;20229;-67
2022/10/14 06:16:42;;;;;;;28.55;16.90;;;12.10;99.90;;;;;;5034917;28;20176;-67
2022/10/14 06:19:08;;;;;;;32.15;19.05;;;12.10;99.90;;;;;;5034791;28;20210;-67
2022/10/14 06:21:34;;;;;;;33.10;18.77;;;12.10;99.90;;;;;;5034717;28;20198;-66
2022/10/14 06:24:00;;;;;;;28.13;17.10;;;12.10;99.90;;;;;;5035164;28;20179;-67
2022/10/14 06:26:25;;;;;;;27.88;17.23;;;12.10;99.90;;;;;;5034727;28;20282;-67
2022/10/14 06:28:51;;;;;;;23.40;15.68;;;12.10;99.90;;;;;;5034844;28;20194;-67
2022/10/14 06:31:17;;;;;;;31.70;19.38;;;12.20;99.90;;;;;;5034643;28;20225;-67
2022/10/14 06:33:42;;;;;;;34.92;19.25;;;12.20;99.90;;;;;;5034483;28;20706;-67
2022/10/14 06:36:09;;;;;;;27.08;17.17;;;12.20;99.90;;;;;;5034677;28;20254;-67
2022/10/14 06:38:35;;;;;;;34.60;20.35;;;12.30;99.90;;;;;;5034312;28;20175;-67
2022/10/14 06:41:01;;;;;;;31.15;18.60;;;12.30;99.90;;;;;;5034274;28;20250;-62
2022/10/14 06:43:27;;;;;;;28.00;17.27;;;12.30;99.90;;;;;;5034204;28;20201;-68
2022/10/14 06:45:56;;;;;;;23.88;14.90;;;12.40;99.90;;;;;;5034937;28;20186;-68
2022/10/14 06:48:22;;;;;;;28.52;16.48;;;12.40;99.90;;;;;;5032852;28;20567;-67
2022/10/14 06:50:47;;;;;;;22.02;14.70;;;12.40;99.90;;;;;;5034861;28;20256;-67
2022/10/14 06:53:13;;;;;;;23.65;14.55;;;12.50;99.90;;;;;;5032623;28;20207;-67
2022/10/14 06:55:39;;;;;;;30.67;17.98;;;12.50;99.90;;;;;;5034234;28;20206;-68
2022/10/14 06:58:04;;;;;;;21.50;14.55;;;12.60;99.90;;;;;;5034059;28;20171;-67
2022/10/14 07:00:30;;;;;;;17.83;12.35;;;12.60;99.90;;;;;;5034487;28;20167;-68
2022/10/14 07:02:58;;;;;;;23.30;15.75;;;12.70;99.90;;;;;;5034178;28;20199;-67
2022/10/14 07:05:25;;;;;;;23.52;15.38;;;12.70;99.90;;;;;;5034007;28;20520;-68
2022/10/14 07:07:51;;;;;;;25.60;16.13;;;12.70;99.90;;;;;;5033987;28;20175;-68
2022/10/14 07:10:16;;;;;;;21.45;13.43;;;12.70;99.90;;;;;;5034086;28;20594;-67
2022/10/14 07:12:43;;;;;;;16.42;11.15;;;12.70;99.90;;;;;;5033697;28;20199;-67
2022/10/14 07:15:09;;;;;;;15.48;10.27;;;12.80;99.90;;;;;;5034022;28;20659;-67
2022/10/14 07:17:34;;;;;;;16.27;11.70;;;12.80;99.90;;;;;;5033832;28;20185;-67
2022/10/14 07:20:00;;;;;;;14.48;10.43;;;12.80;99.90;;;;;;5034549;28;20163;-75
2022/10/14 07:22:26;;;;;;;19.80;12.05;;;12.80;99.90;;;;;;5039730;28;20663;-63
2022/10/14 07:24:52;;;;;;;18.67;11.63;;;12.80;99.90;;;;;;5032925;28;20175;-62
2022/10/14 07:27:19;;;;;;;14.23;11.15;;;12.80;99.90;;;;;;5033312;28;20201;-62
2022/10/14 07:29:45;;;;;;;16.85;10.73;;;12.80;99.90;;;;;;5032503;28;20179;-62
2022/10/14 07:32:10;;;;;;;17.33;10.90;;;12.90;99.90;;;;;;5033373;28;20667;-62
2022/10/14 07:34:36;;;;;;;12.35;9.52;;;12.90;99.90;;;;;;5033741;28;20207;-62
2022/10/14 07:37:02;;;;;;;14.75;10.15;;;13.00;99.90;;;;;;5033746;28;20167;-62
2022/10/14 07:39:28;;;;;;;14.85;9.35;;;13.10;99.90;;;;;;5033433;28;20168;-62
2022/10/14 07:41:54;;;;;;;15.13;8.70;;;13.20;99.90;;;;;;5033284;28;20190;-66
2022/10/14 07:44:20;;;;;;;11.18;7.53;;;13.30;99.90;;;;;;5034005;28;20179;-65
2022/10/14 07:46:46;;;;;;;9.90;7.45;;;13.30;99.90;;;;;;5033829;28;20175;-65
2022/10/14 07:49:15;;;;;;;10.60;7.25;;;13.40;99.90;;;;;;5033438;28;20205;-66
2022/10/14 07:51:41;;;;;;;10.68;6.97;;;13.30;99.90;;;;;;5033422;28;20183;-65
2022/10/14 07:54:18;;;;;;;8.45;6.28;;;13.40;99.90;;;;;;5033395;28;20646;-66
2022/10/14 07:56:48;;;;;;;8.90;6.80;;;13.50;99.90;;;;;;5033644;28;20170;-66
2022/10/14 07:59:14;;;;;;;9.95;7.55;;;13.60;99.90;;;;;;5033575;28;20163;-65
2022/10/14 08:01:39;;;;;;;11.75;6.82;;;13.70;99.90;;;;;;5033374;28;20206;-66
2022/10/14 08:04:05;;;;;;;7.35;6.22;;;13.60;99.90;;;;;;5033766;28;20203;-65
2022/10/14 08:06:31;;;;;;;9.05;7.30;;;13.60;99.90;;;;;;5033447;28;20179;-66
2022/10/14 08:08:57;;;;;;;10.07;7.32;;;13.50;99.90;;;;;;5033667;28;20167;-65
2022/10/14 08:11:27;;;;;;;9.38;6.30;;;13.50;99.90;;;;;;5033678;28;20175;-66
2022/10/14 08:13:53;;;;;;;10.57;7.20;;;13.50;99.90;;;;;;5033084;28;20206;-65
2022/10/14 08:16:20;;;;;;;10.50;7.30;;;13.40;99.90;;;;;;5033332;28;20175;-65
2022/10/14 08:18:46;;;;;;;12.07;7.32;;;13.30;99.90;;;;;;5033256;28;20190;-66
2022/10/14 08:21:13;;;;;;;10.85;7.18;;;13.30;99.90;;;;;;5033176;28;20167;-65
2022/10/14 08:23:39;;;;;;;9.25;6.65;;;13.30;99.90;;;;;;5033141;28;20207;-66
2022/10/14 08:26:25;;;;;;;8.85;7.28;;;13.30;99.90;;;;;;5031751;28;20214;-65
2022/10/14 08:28:51;;;;;;;9.80;7.32;;;13.30;99.90;;;;;;5033021;28;20745;-66
2022/10/14 08:31:18;;;;;;;10.40;6.90;;;13.40;99.90;;;;;;5033158;28;20167;-65
2022/10/14 08:33:44;;;;;;;7.85;6.63;;;13.40;99.90;;;;;;5032905;28;20199;-66
2022/10/14 08:36:09;;;;;;;8.02;6.30;;;13.50;99.90;;;;;;5033384;28;20175;-65
2022/10/14 08:38:35;;;;;;;8.15;6.65;;;13.60;99.90;;;;;;5033144;28;20177;-66
2022/10/14 08:41:16;;;;;;;9.73;6.93;;;13.70;99.90;;;;;;5033187;28;20189;-66
2022/10/14 08:44:00;;;;;;;7.00;5.93;;;13.70;99.90;;;;;;5032970;28;20205;-65
2022/10/14 08:46:45;;;;;;;6.63;5.93;;;13.70;99.90;;;;;;5036850;28;20182;-66
2022/10/14 08:49:21;;;;;;;6.97;6.07;;;13.80;99.90;;;;;;5036605;28;20615;-65
2022/10/14 08:51:56;;;;;;;7.65;6.25;;;13.90;99.90;;;;;;5037019;28;20213;-65
2022/10/14 08:54:54;;;;;;;6.25;5.45;;;13.90;99.90;;;;;;5036770;28;20186;-66
2022/10/14 08:57:25;;;;;;;6.03;5.03;;;13.80;99.90;;;;;;5036526;28;20159;-65
2022/10/14 08:59:51;;;;;;;6.78;4.95;;;13.90;99.90;;;;;;5036675;28;20167;-65
2022/10/14 09:02:48;;;;;;;5.03;4.53;;;13.70;99.90;;;;;;5036270;28;20195;-66
2022/10/14 09:05:16;;;;;;;5.10;4.43;;;13.80;99.90;;;;;;5035052;28;20175;-65
2022/10/14 09:07:44;;;;;;;5.43;4.00;;;13.80;99.90;;;;;;5036316;28;20167;-65
2022/10/14 09:10:31;;;;;;;5.88;3.88;;;13.70;99.90;;;;;;5036487;28;20171;-65
2022/10/14 09:13:05;;;;;;;6.28;4.00;;;13.70;99.90;;;;;;5035937;28;20214;-65
2022/10/14 09:15:37;;;;;;;5.45;3.67;;;13.70;99.90;;;;;;5036334;28;20159;-66
2022/10/14 09:18:23;;;;;;;3.90;3.60;;;13.70;99.90;;;;;;5036128;28;20267;-65
2022/10/14 09:20:49;;;;;;;3.97;3.55;;;13.60;99.90;;;;;;5036124;28;20242;-65
2022/10/14 09:23:21;;;;;;;4.10;3.70;;;13.60;99.90;;;;;;5036286;28;20210;-65
2022/10/14 09:25:54;;;;;;;4.22;3.83;;;13.70;99.90;;;;;;5036354;28;20178;-65
2022/10/14 09:28:26;;;;;;;3.97;3.67;;;13.70;99.90;;;;;;5035619;28;20198;-66
2022/10/14 09:30:53;;;;;;;4.20;3.80;;;13.70;99.90;;;;;;5035759;28;20187;-65
2022/10/14 09:33:20;;;;;;;3.72;3.40;;;13.70;99.90;;;;;;5035744;28;20213;-66
2022/10/14 09:35:47;;;;;;;3.85;3.53;;;13.80;99.90;;;;;;5035749;28;20198;-66
2022/10/14 09:38:14;;;;;;;5.55;3.33;;;13.90;99.90;;;;;;5035797;28;20178;-66
2022/10/14 09:40:49;;;;;;;3.30;3.10;;;13.90;99.90;;;;;;5035682;28;20172;-65
2022/10/14 09:43:20;;;;;;;3.47;3.20;;;13.90;99.90;;;;;;5034211;28;20249;-66
2022/10/14 09:45:57;;;;;;;3.45;3.22;;;14.00;99.90;;;;;;5035868;28;20182;-66
2022/10/14 09:48:41;;;;;;;5.47;3.20;;;14.00;99.90;;;;;;5034133;28;20277;-66
2022/10/14 09:51:21;;;;;;;3.38;3.08;;;14.10;99.90;;;;;;5034178;28;20179;-65
2022/10/14 09:53:52;;;;;;;3.47;3.10;;;14.20;99.90;;;;;;5035686;28;20202;-66
2022/10/14 09:56:30;;;;;;;3.22;3.00;;;14.30;99.90;;;;;;5034965;28;20161;-66
2022/10/14 09:58:57;;;;;;;3.42;3.13;;;14.40;99.90;;;;;;5035387;28;20178;-66
2022/10/14 10:01:28;;;;;;;3.00;2.80;;;14.40;99.90;;;;;;5035860;28;20198;-66
2022/10/14 10:03:55;;;;;;;3.47;2.83;;;14.50;99.90;;;;;;5035018;28;20286;-66
2022/10/14 10:06:24;;;;;;;4.35;3.13;;;14.70;99.90;;;;;;5035132;28;20167;-66
2022/10/14 10:08:54;;;;;;;2.85;2.65;;;14.80;99.90;;;;;;5035415;28;20175;-66
2022/10/14 10:11:37;;;;;;;2.85;2.65;;;15.00;99.90;;;;;;5035036;28;20662;-66
2022/10/14 10:14:14;;;;;;;2.58;2.38;;;15.10;99.90;;;;;;5035292;28;20726;-65
2022/10/14 10:16:40;;;;;;;3.53;2.70;;;15.20;99.90;;;;;;5034914;28;20187;-66
2022/10/14 10:19:27;;;;;;;2.67;2.47;;;15.20;99.90;;;;;;5034952;28;20179;-66
2022/10/14 10:22:13;;;;;;;3.05;2.28;;;15.30;99.90;;;;;;5033485;28;20286;-66
2022/10/14 10:24:39;;;;;;;2.30;2.20;;;15.40;99.90;;;;;;5035139;28;20253;-66
2022/10/14 10:27:20;;;;;;;2.75;2.30;;;15.20;99.90;;;;;;5034612;28;20210;-68
2022/10/14 10:29:46;;;;;;;2.92;2.20;;;15.20;99.90;;;;;;5034760;28;20167;-66
2022/10/14 10:32:20;;;;;;;2.40;2.20;;;15.20;99.90;;;;;;5034810;28;20187;-70
2022/10/14 10:35:18;;;;;;;2.83;2.00;;;15.20;99.90;;;;;;5034950;28;20218;-69
2022/10/14 10:38:19;;;;;;;1.88;1.77;;;15.30;99.90;;;;;;5034404;28;20539;-69
2022/10/14 10:41:19;;;;;;;2.15;2.05;;;15.30;99.90;;;;;;5035157;28;20522;-67
2022/10/14 10:43:57;;;;;;;2.10;2.00;;;15.30;99.90;;;;;;5033303;28;20203;-68
2022/10/14 10:46:25;;;;;;;2.30;2.10;;;15.30;99.90;;;;;;5033230;28;20171;-67
2022/10/14 10:49:10;;;;;;;2.10;2.00;;;15.20;99.90;;;;;;5033383;28;20187;-68
2022/10/14 10:51:58;;;;;;;2.10;1.95;;;15.10;99.90;;;;;;5033496;28;20171;-68
2022/10/14 10:54:47;;;;;;;2.00;1.90;;;15.10;99.90;;;;;;5035185;28;20729;-67
2022/10/14 10:57:30;;;;;;;2.10;2.00;;;15.10;99.90;;;;;;5034629;28;20159;-68
2022/10/14 11:00:06;;;;;;;2.00;1.90;;;15.10;99.90;;;;;;5034791;28;20184;-67
2022/10/14 11:02:38;;;;;;;2.30;2.10;;;15.10;99.90;;;;;;5034791;28;20549;-68
2022/10/14 11:05:26;;;;;;;2.10;2.00;;;15.10;99.90;;;;;;5034189;28;20278;-66
2022/10/14 11:14:10;;;;;;;2.50;2.30;;;15.10;99.90;;;;;;5033799;28;20268;-66
2022/10/14 11:17:00;;;;;;;3.20;2.28;;;15.10;99.90;;;;;;5034199;28;20158;-66
2022/10/14 11:19:47;;;;;;;2.90;2.70;;;15.10;99.90;;;;;;5033879;28;20172;-65
2022/10/14 11:22:59;;;;;;;3.13;2.63;;;15.00;99.90;;;;;;5033958;28;20195;-66
2022/10/14 11:25:44;;;;;;;2.85;2.65;;;15.00;99.90;;;;;;5033808;28;20178;-66
2022/10/14 11:28:18;;;;;;;3.08;2.88;;;15.10;99.90;;;;;;5033434;28;20218;-64
2022/10/14 11:30:52;;;;;;;4.43;3.42;;;15.00;99.90;;;;;;5033731;28;20682;-64
2022/10/14 11:33:43;;;;;;;4.28;3.40;;;15.10;99.90;;;;;;5033918;28;20238;-64
2022/10/14 11:36:20;;;;;;;4.03;3.67;;;15.10;99.90;;;;;;5033938;28;20194;-64
2022/10/14 11:39:14;;;;;;;5.20;3.88;;;15.20;99.90;;;;;;5032589;28;20301;-64
2022/10/14 11:42:03;;;;;;;5.85;4.60;;;15.30;99.90;;;;;;5032527;28;20270;-64
2022/10/14 11:44:37;;;;;;;6.55;4.80;;;15.30;99.90;;;;;;5032618;28;20559;-64
2022/10/14 11:47:18;;;;;;;6.43;5.57;;;15.40;99.90;;;;;;5033439;28;20178;-64
2022/10/14 11:50:09;;;;;;;6.18;5.25;;;15.40;99.90;;;;;;5033852;28;20163;-64
2022/10/14 11:52:41;;;;;;;7.05;4.80;;;15.50;99.90;;;;;;5033673;28;20249;-63
2022/10/14 11:55:27;;;;;;;7.55;5.97;;;15.50;99.90;;;;;;5033993;28;20649;-64
2022/10/14 11:58:11;;;;;;;9.00;6.18;;;15.50;99.90;;;;;;5033339;28;20163;-64
2022/10/14 12:00:41;;;;;;;9.02;6.13;;;15.50;99.90;;;;;;5033805;28;20166;-64
2022/10/14 12:03:20;;;;;;;8.38;6.55;;;15.50;99.90;;;;;;5033403;28;20562;-64
2022/10/14 12:06:20;;;;;;;8.45;6.07;;;15.60;99.90;;;;;;5033187;28;20159;-64
2022/10/14 12:09:13;;;;;;;7.45;5.93;;;15.60;99.90;;;;;;5032319;28;20598;-63
2022/10/14 12:11:48;;;;;;;7.88;5.47;;;15.60;99.90;;;;;;5033376;28;20159;-64
2022/10/14 12:14:59;;;;;;;9.75;6.28;;;15.70;99.90;;;;;;5033360;28;20549;-64
2022/10/14 12:17:33;;;;;;;9.32;5.90;;;15.70;99.90;;;;;;5030843;28;20289;-64
2022/10/14 12:20:07;;;;;;;6.40;5.55;;;15.70;99.90;;;;;;5019472;28;20681;-64
2022/10/14 12:22:34;;;;;;;9.18;6.47;;;15.70;99.90;;;;;;5017323;28;20201;-64
2022/10/14 12:25:06;;;;;;;8.02;6.07;;;15.70;99.90;;;;;;5017306;28;20180;-67
2022/10/14 12:27:32;;;;;;;6.70;5.72;;;15.70;99.90;;;;;;5017114;28;20192;-66
2022/10/14 12:29:58;;;;;;;7.70;5.90;;;15.70;99.90;;;;;;5017236;28;20180;-66
2022/10/14 12:32:29;;;;;;;8.02;5.85;;;15.60;99.90;;;;;;5017043;28;20191;-66
2022/10/14 12:35:01;;;;;;;10.88;5.50;;;15.60;99.90;;;;;;5017226;28;20195;-67
2022/10/14 12:37:33;;;;;;;10.15;5.97;;;15.60;99.90;;;;;;5016996;28;20232;-67
2022/10/14 12:40:02;;;;;;;9.15;6.00;;;15.60;99.90;;;;;;5016948;28;20175;-67
2022/10/14 12:43:02;;;;;;;8.15;5.95;;;15.60;99.90;;;;;;5016801;28;20199;-66
2022/10/14 12:45:31;;;;;;;8.10;5.80;;;15.60;99.90;;;;;;5016546;28;20203;-66
2022/10/14 12:48:19;;;;;;;7.75;5.68;;;15.50;99.90;;;;;;5026127;28;20183;-65
2022/10/14 12:50:47;;;;;;;7.88;5.38;;;15.50;99.90;;;;;;5036874;28;20167;-64
2022/10/14 12:53:21;;;;;;;9.45;5.57;;;15.50;99.90;;;;;;5036326;28;20234;-67
2022/10/14 12:55:57;;;;;;;6.38;5.53;;;15.50;99.90;;;;;;5035177;28;20175;-63
2022/10/14 12:58:32;;;;;;;8.15;5.60;;;15.50;99.90;;;;;;5036123;28;20240;-63
2022/10/14 13:01:15;;;;;;;8.40;5.90;;;15.50;99.90;;;;;;5036669;28;20673;-63